Ship Status Report: callsign BAREU11

sailwx.info

Track history (hours):
 
Tides and Currents Weather Stations Pressure Air Temp Water Temp Dewpoint Dewpoint Depression Visibility Wind Speed Wind Dir Waves Ship Positions

Callsign BAREU11 (name unknown)

Last reported at 2014-Sep-17 08:00 UTC. Time now 2014-Sep-17 09:34 UTC.
Position S 12°00' W 077°12'.

Barometer 1015.2 mb

Date/timePositionNaut miles runAvg speedWind from/ knotsBaromVisibWave heightAir tempDewpointWater temp
2014-Sep-17 08:00S 12°00' W 077°12'6 0.3 1015.2
2014-Sep-16 12:00S 12°00' W 077°06'6 2.9 1016.3
2014-Sep-16 10:00S 12°00' W 077°12'0 0.0 1015.4
2014-Sep-16 09:00S 12°00' W 077°12'0 0.0 1015.4
2014-Sep-16 01:00S 12°00' W 077°12'6 5.9 1016.5
2014-Sep-16 00:00S 12°00' W 077°18'1716.8 1015.4
2014-Sep-15 23:00S 11°48' W 077°30'2121.3 1014.9
2014-Sep-15 22:00S 11°36' W 077°48'3819.1 1014.3
2014-Sep-15 20:00S 11°06' W 078°12'1313.4 1014.2
2014-Sep-15 19:00S 10°54' W 078°18'2221.5 1014.5
2014-Sep-15 18:00S 10°36' W 078°30'1716.8 1015.3
2014-Sep-15 17:00S 10°24' W 078°42'1918.9 1015.5
2014-Sep-15 16:00S 10°06' W 078°48'1716.8 1016.3
2014-Sep-15 15:00S 09°54' W 079°00'3517.4 1016.6
2014-Sep-15 13:00S 09°24' W 079°18'2221.5 1015.7
2014-Sep-15 12:00S 09°06' W 079°30'1313.4 1015.1
2014-Sep-15 11:00S 08°54' W 079°36'2221.6 1014.4
2014-Sep-15 10:00S 08°36' W 079°48'2221.6 1013.9
2014-Sep-15 09:00S 08°18' W 080°00'1313.4 1013.9
2014-Sep-15 08:00S 08°06' W 080°06'2221.6 1014.1
2014-Sep-15 07:00S 07°48' W 080°18'1716.9 1014.1
2014-Sep-15 06:00S 07°36' W 080°30'1919.0 1014.4
2014-Sep-15 05:00S 07°18' W 080°36'3819.2 1014.8
2014-Sep-15 03:00S 06°48' W 081°00'1313.4 1014.8
2014-Sep-15 02:00S 06°36' W 081°06'2221.6 1014.3
2014-Sep-15 01:00S 06°18' W 081°18'5518.4 1013.3
2014-Sep-14 22:00S 05°24' W 081°30'1212.0 1010.3
2014-Sep-14 21:00S 05°12' W 081°30'1818.0 1009.9
2014-Sep-14 20:00S 04°54' W 081°30'1818.0 1010.1
2014-Sep-14 19:00S 04°36' W 081°30'1919.0 1010.2
2014-Sep-14 18:00S 04°18' W 081°36'3618.0 1010.6
2014-Sep-14 16:00S 03°42' W 081°36'1818.0 1012.8
2014-Sep-14 15:00S 03°24' W 081°36'1919.0 1013.1
2014-Sep-14 14:00S 03°06' W 081°30'1818.0 1013.2
2014-Sep-14 13:00S 02°48' W 081°30'1818.0 1012.4
2014-Sep-14 12:00S 02°30' W 081°30'2424.0 1012.4
2014-Sep-14 11:00S 02°06' W 081°30'1818.0 1012.2
2014-Sep-14 10:00S 01°48' W 081°30'1919.0 1011.8
2014-Sep-14 09:00S 01°30' W 081°24'1919.0 1011.8
2014-Sep-14 08:00S 01°12' W 081°18'1818.0 1011.8
2014-Sep-14 07:00S 00°54' W 081°18'1919.0 1011.9
2014-Sep-14 06:00S 00°36' W 081°12'1818.0 1012.0
2014-Sep-14 05:00S 00°18' W 081°12'1919.0 1012.4
2014-Sep-14 04:00N 00°00' W 081°06'2524.7 1012.3
2014-Sep-14 03:00N 00°24' W 081°00'1818.0 1011.8
2014-Sep-14 02:00N 00°42' W 081°00'1919.0 1011.0
2014-Sep-14 01:00N 01°00' W 080°54'3618.2 1009.8
2014-Sep-13 23:00N 01°36' W 080°48'1818.0 1008.7
2014-Sep-13 22:00N 01°54' W 080°48'1919.0 1008.2
2014-Sep-13 21:00N 02°12' W 080°42'1818.0 1008.8
2014-Sep-13 20:00N 02°30' W 080°42'1919.0 1009.2
2014-Sep-13 19:00N 02°48' W 080°36'1212.0 1009.6
2014-Sep-13 18:00N 03°00' W 080°36'1919.0 1010.6
2014-Sep-13 17:00N 03°18' W 080°30'1818.0 1011.4
2014-Sep-13 16:00N 03°36' W 080°30'1919.0 1011.8
2014-Sep-13 15:00N 03°54' W 080°24'1919.0 1011.6
2014-Sep-13 14:00N 04°12' W 080°18'1818.0 1011.1
2014-Sep-13 13:00N 04°30' W 080°18'3618.2 1010.3
2014-Sep-13 11:00N 05°06' W 080°12'3618.2 1009.0
2014-Sep-13 09:00N 05°42' W 080°06'1919.0 1008.6
2014-Sep-13 08:00N 06°00' W 080°00'1818.0 1009.1
2014-Sep-13 07:00N 06°18' W 080°00'3819.0 1009.7
2014-Sep-13 05:00N 06°54' W 079°48'1818.0 1009.9
2014-Sep-13 04:00N 07°12' W 079°48'1919.0 1010.3
2014-Sep-13 03:00N 07°30' W 079°42'2424.0 1010.3
2014-Sep-13 02:00N 07°54' W 079°42'1919.0 1009.7
2014-Sep-13 01:00N 08°12' W 079°36'1919.0 1008.6
2014-Sep-13 00:00N 08°30' W 079°30'1818.0 1007.9
2014-Sep-12 23:00N 08°48' W 079°30'1313.4 1007.2
2014-Sep-12 22:00N 09°00' W 079°36'0 0.0 1007.7
2014-Sep-12 21:00N 09°00' W 079°36'0 0.0 1006.5
2014-Sep-12 19:00N 09°00' W 079°36'6 6.0 1006.9
2014-Sep-12 18:00N 09°06' W 079°36'1211.8 1007.8
2014-Sep-12 17:00N 09°06' W 079°48'6 6.0 1008.5
2014-Sep-12 16:00N 09°12' W 079°48'8 2.8 1009.4
2014-Sep-12 13:00N 09°18' W 079°54'6 6.0 1011.3
2014-Sep-12 12:00N 09°24' W 079°54'0 0.0 1010.6
2014-Sep-11 21:00N 09°24' W 079°54'0 0.0 1008.2
2014-Sep-11 12:00N 09°24' W 079°54'6 6.0 1009.3
2014-Sep-11 11:00N 09°30' W 079°54'6 0.3 1008.7
2014-Sep-10 17:00N 09°24' W 079°54'1313.4 1010.6
2014-Sep-10 16:00N 09°36' W 079°48'1918.7 1011.2
2014-Sep-10 15:00N 09°42' W 079°30'1313.3 1010.4
2014-Sep-10 14:00N 09°48' W 079°18'1817.7 1010.2
2014-Sep-10 13:00N 09°48' W 079°00'1817.7 1009.7
2014-Sep-10 12:00N 09°48' W 078°42'1918.7 1008.7
2014-Sep-10 11:00N 09°54' W 078°24'1817.7 1008.7
2014-Sep-10 10:00N 09°54' W 078°06'1918.7 1007.9
2014-Sep-10 09:00N 10°00' W 077°48'1817.7 1008.1
2014-Sep-10 08:00N 10°00' W 077°30'1918.7 1008.4
2014-Sep-10 07:00N 10°06' W 077°12'1817.7 1008.8
2014-Sep-10 06:00N 10°06' W 076°54'3618.0 1008.9
2014-Sep-10 04:00N 10°12' W 076°18'2424.4 1009.1
2014-Sep-10 03:00N 10°18' W 075°54'1817.7 1010.2
2014-Sep-10 02:00N 10°18' W 075°36'8 1.1 1010.1
2014-Sep-09 18:00N 10°24' W 075°30'0 0.0 1008.8
2014-Sep-09 07:00N 10°24' W 075°30'8 8.4 1009.5
2014-Sep-09 06:00N 10°18' W 075°36'13 1.9 1009.9
2014-Sep-08 23:00N 10°24' W 075°48'6 6.0 1008.6
2014-Sep-08 22:00N 10°30' W 075°48'1918.9 1008.6
2014-Sep-08 21:00N 10°48' W 075°42'1716.8 1008.8
2014-Sep-08 20:00N 11°00' W 075°30'1716.8 1008.9
2014-Sep-08 19:00N 11°12' W 075°18'2221.5 1009.5
2014-Sep-08 18:00N 11°30' W 075°06'1716.8 1010.2
2014-Sep-08 17:00N 11°42' W 074°54'1313.4 1010.8
2014-Sep-08 16:00N 11°54' W 074°48'2121.5 1011.5
2014-Sep-08 15:00N 12°12' W 074°36'1716.8 1011.9
2014-Sep-08 14:00N 12°24' W 074°24'1716.8 1011.9
2014-Sep-08 13:00N 12°36' W 074°12'3819.0 1011.4
2014-Sep-08 11:00N 13°06' W 073°48'2121.5 1010.5
2014-Sep-08 10:00N 13°24' W 073°36'1716.7 1010.2
2014-Sep-08 09:00N 13°36' W 073°24'1313.3 1009.7
2014-Sep-08 08:00N 13°48' W 073°18'2121.4 1010.1
2014-Sep-08 07:00N 14°06' W 073°06'1716.7 1009.9
2014-Sep-08 06:00N 14°18' W 072°54'1716.7 1010.9
2014-Sep-08 05:00N 14°30' W 072°42'1313.3 1011.6
2014-Sep-08 04:00N 14°42' W 072°36'1716.7 1012.5
2014-Sep-08 03:00N 14°54' W 072°24'2121.4 1013.1
2014-Sep-08 02:00N 15°12' W 072°12'1716.7 1013.2
2014-Sep-08 01:00N 15°24' W 072°00'1313.3 1012.3
2014-Sep-08 00:00N 15°36' W 071°54'1716.7 1011.4
2014-Sep-07 23:00N 15°48' W 071°42'1716.6 1011.1
2014-Sep-07 22:00N 16°00' W 071°30'1716.6 1011.3
2014-Sep-07 21:00N 16°12' W 071°18'2121.4 1011.9
2014-Sep-07 20:00N 16°30' W 071°06'1313.3 1012.3
2014-Sep-07 19:00N 16°42' W 071°00'1716.6 1013.4
2014-Sep-07 18:00N 16°54' W 070°48'1716.6 1013.9
2014-Sep-07 17:00N 17°06' W 070°36'2121.3 1014.7
2014-Sep-07 16:00N 17°24' W 070°24'1716.6 1015.1
2014-Sep-07 15:00N 17°36' W 070°12'1716.6 1015.9
2014-Sep-07 14:00N 17°48' W 070°00'1716.6 1016.6
2014-Sep-07 13:00N 18°00' W 069°48'2121.3 1016.6
2014-Sep-07 12:00N 18°18' W 069°36'   1015.2
Track history (hours):
 
Tides and Currents Weather Stations Pressure Air Temp Water Temp Dewpoint Dewpoint Depression Visibility Wind Speed Wind Dir Waves Ship Positions

Callsign BAREU11 (name unknown)

Last reported at 2014-Sep-17 08:00 UTC. Time now 2014-Sep-17 09:34 UTC.
Position S 12°00' W 077°12'.

Barometer 1015.2 mb

Date/timePositionNaut miles runAvg speedWind from/ knotsBaromVisibWave heightAir tempDewpointWater temp
2014-Sep-17 08:00S 12°00' W 077°12'6 0.3 1015.2
2014-Sep-16 12:00S 12°00' W 077°06'6 2.9 1016.3
2014-Sep-16 10:00S 12°00' W 077°12'0 0.0 1015.4
2014-Sep-16 09:00S 12°00' W 077°12'0 0.0 1015.4
2014-Sep-16 01:00S 12°00' W 077°12'6 5.9 1016.5
2014-Sep-16 00:00S 12°00' W 077°18'1716.8 1015.4
2014-Sep-15 23:00S 11°48' W 077°30'2121.3 1014.9
2014-Sep-15 22:00S 11°36' W 077°48'3819.1 1014.3
2014-Sep-15 20:00S 11°06' W 078°12'1313.4 1014.2
2014-Sep-15 19:00S 10°54' W 078°18'2221.5 1014.5
2014-Sep-15 18:00S 10°36' W 078°30'1716.8 1015.3
2014-Sep-15 17:00S 10°24' W 078°42'1918.9 1015.5
2014-Sep-15 16:00S 10°06' W 078°48'1716.8 1016.3
2014-Sep-15 15:00S 09°54' W 079°00'3517.4 1016.6
2014-Sep-15 13:00S 09°24' W 079°18'2221.5 1015.7
2014-Sep-15 12:00S 09°06' W 079°30'1313.4 1015.1
2014-Sep-15 11:00S 08°54' W 079°36'2221.6 1014.4
2014-Sep-15 10:00S 08°36' W 079°48'2221.6 1013.9
2014-Sep-15 09:00S 08°18' W 080°00'1313.4 1013.9
2014-Sep-15 08:00S 08°06' W 080°06'2221.6 1014.1
2014-Sep-15 07:00S 07°48' W 080°18'1716.9 1014.1
2014-Sep-15 06:00S 07°36' W 080°30'1919.0 1014.4
2014-Sep-15 05:00S 07°18' W 080°36'3819.2 1014.8
2014-Sep-15 03:00S 06°48' W 081°00'1313.4 1014.8
2014-Sep-15 02:00S 06°36' W 081°06'2221.6 1014.3
2014-Sep-15 01:00S 06°18' W 081°18'5518.4 1013.3
2014-Sep-14 22:00S 05°24' W 081°30'1212.0 1010.3
2014-Sep-14 21:00S 05°12' W 081°30'1818.0 1009.9
2014-Sep-14 20:00S 04°54' W 081°30'1818.0 1010.1
2014-Sep-14 19:00S 04°36' W 081°30'1919.0 1010.2
2014-Sep-14 18:00S 04°18' W 081°36'3618.0 1010.6
2014-Sep-14 16:00S 03°42' W 081°36'1818.0 1012.8
2014-Sep-14 15:00S 03°24' W 081°36'1919.0 1013.1
2014-Sep-14 14:00S 03°06' W 081°30'1818.0 1013.2
2014-Sep-14 13:00S 02°48' W 081°30'1818.0 1012.4
2014-Sep-14 12:00S 02°30' W 081°30'2424.0 1012.4
2014-Sep-14 11:00S 02°06' W 081°30'1818.0 1012.2
2014-Sep-14 10:00S 01°48' W 081°30'1919.0 1011.8
2014-Sep-14 09:00S 01°30' W 081°24'1919.0 1011.8
2014-Sep-14 08:00S 01°12' W 081°18'1818.0 1011.8
2014-Sep-14 07:00S 00°54' W 081°18'1919.0 1011.9
2014-Sep-14 06:00S 00°36' W 081°12'1818.0 1012.0
2014-Sep-14 05:00S 00°18' W 081°12'1919.0 1012.4
2014-Sep-14 04:00N 00°00' W 081°06'2524.7 1012.3
2014-Sep-14 03:00N 00°24' W 081°00'1818.0 1011.8
2014-Sep-14 02:00N 00°42' W 081°00'1919.0 1011.0
2014-Sep-14 01:00N 01°00' W 080°54'3618.2 1009.8
2014-Sep-13 23:00N 01°36' W 080°48'1818.0 1008.7
2014-Sep-13 22:00N 01°54' W 080°48'1919.0 1008.2
2014-Sep-13 21:00N 02°12' W 080°42'1818.0 1008.8
2014-Sep-13 20:00N 02°30' W 080°42'1919.0 1009.2
2014-Sep-13 19:00N 02°48' W 080°36'1212.0 1009.6
2014-Sep-13 18:00N 03°00' W 080°36'1919.0 1010.6
2014-Sep-13 17:00N 03°18' W 080°30'1818.0 1011.4
2014-Sep-13 16:00N 03°36' W 080°30'1919.0 1011.8
2014-Sep-13 15:00N 03°54' W 080°24'1919.0 1011.6
2014-Sep-13 14:00N 04°12' W 080°18'1818.0 1011.1
2014-Sep-13 13:00N 04°30' W 080°18'3618.2 1010.3
2014-Sep-13 11:00N 05°06' W 080°12'3618.2 1009.0
2014-Sep-13 09:00N 05°42' W 080°06'1919.0 1008.6
2014-Sep-13 08:00N 06°00' W 080°00'1818.0 1009.1
2014-Sep-13 07:00N 06°18' W 080°00'3819.0 1009.7
2014-Sep-13 05:00N 06°54' W 079°48'1818.0 1009.9
2014-Sep-13 04:00N 07°12' W 079°48'1919.0 1010.3
2014-Sep-13 03:00N 07°30' W 079°42'2424.0 1010.3
2014-Sep-13 02:00N 07°54' W 079°42'1919.0 1009.7
2014-Sep-13 01:00N 08°12' W 079°36'1919.0 1008.6
2014-Sep-13 00:00N 08°30' W 079°30'1818.0 1007.9
2014-Sep-12 23:00N 08°48' W 079°30'1313.4 1007.2
2014-Sep-12 22:00N 09°00' W 079°36'0 0.0 1007.7
2014-Sep-12 21:00N 09°00' W 079°36'0 0.0 1006.5
2014-Sep-12 19:00N 09°00' W 079°36'6 6.0 1006.9
2014-Sep-12 18:00N 09°06' W 079°36'1211.8 1007.8
2014-Sep-12 17:00N 09°06' W 079°48'6 6.0 1008.5
2014-Sep-12 16:00N 09°12' W 079°48'8 2.8 1009.4
2014-Sep-12 13:00N 09°18' W 079°54'6 6.0 1011.3
2014-Sep-12 12:00N 09°24' W 079°54'0 0.0 1010.6
2014-Sep-11 21:00N 09°24' W 079°54'0 0.0 1008.2
2014-Sep-11 12:00N 09°24' W 079°54'6 6.0 1009.3
2014-Sep-11 11:00N 09°30' W 079°54'6 0.3 1008.7
2014-Sep-10 17:00N 09°24' W 079°54'1313.4 1010.6
2014-Sep-10 16:00N 09°36' W 079°48'1918.7 1011.2
2014-Sep-10 15:00N 09°42' W 079°30'1313.3 1010.4
2014-Sep-10 14:00N 09°48' W 079°18'1817.7 1010.2
2014-Sep-10 13:00N 09°48' W 079°00'1817.7 1009.7
2014-Sep-10 12:00N 09°48' W 078°42'1918.7 1008.7
2014-Sep-10 11:00N 09°54' W 078°24'1817.7 1008.7
2014-Sep-10 10:00N 09°54' W 078°06'1918.7 1007.9
2014-Sep-10 09:00N 10°00' W 077°48'1817.7 1008.1
2014-Sep-10 08:00N 10°00' W 077°30'1918.7 1008.4
2014-Sep-10 07:00N 10°06' W 077°12'1817.7 1008.8
2014-Sep-10 06:00N 10°06' W 076°54'3618.0 1008.9
2014-Sep-10 04:00N 10°12' W 076°18'2424.4 1009.1
2014-Sep-10 03:00N 10°18' W 075°54'1817.7 1010.2
2014-Sep-10 02:00N 10°18' W 075°36'8 1.1 1010.1
2014-Sep-09 18:00N 10°24' W 075°30'0 0.0 1008.8
2014-Sep-09 07:00N 10°24' W 075°30'8 8.4 1009.5
2014-Sep-09 06:00N 10°18' W 075°36'13 1.9 1009.9
2014-Sep-08 23:00N 10°24' W 075°48'6 6.0 1008.6
2014-Sep-08 22:00N 10°30' W 075°48'1918.9 1008.6
2014-Sep-08 21:00N 10°48' W 075°42'1716.8 1008.8
2014-Sep-08 20:00N 11°00' W 075°30'1716.8 1008.9
2014-Sep-08 19:00N 11°12' W 075°18'2221.5 1009.5
2014-Sep-08 18:00N 11°30' W 075°06'1716.8 1010.2
2014-Sep-08 17:00N 11°42' W 074°54'1313.4 1010.8
2014-Sep-08 16:00N 11°54' W 074°48'2121.5 1011.5
2014-Sep-08 15:00N 12°12' W 074°36'1716.8 1011.9
2014-Sep-08 14:00N 12°24' W 074°24'1716.8 1011.9
2014-Sep-08 13:00N 12°36' W 074°12'3819.0 1011.4
2014-Sep-08 11:00N 13°06' W 073°48'2121.5 1010.5
2014-Sep-08 10:00N 13°24' W 073°36'1716.7 1010.2
2014-Sep-08 09:00N 13°36' W 073°24'1313.3 1009.7
2014-Sep-08 08:00N 13°48' W 073°18'2121.4 1010.1
2014-Sep-08 07:00N 14°06' W 073°06'1716.7 1009.9
2014-Sep-08 06:00N 14°18' W 072°54'1716.7 1010.9
2014-Sep-08 05:00N 14°30' W 072°42'1313.3 1011.6
2014-Sep-08 04:00N 14°42' W 072°36'1716.7 1012.5
2014-Sep-08 03:00N 14°54' W 072°24'2121.4 1013.1
2014-Sep-08 02:00N 15°12' W 072°12'1716.7 1013.2
2014-Sep-08 01:00N 15°24' W 072°00'1313.3 1012.3
2014-Sep-08 00:00N 15°36' W 071°54'1716.7 1011.4
2014-Sep-07 23:00N 15°48' W 071°42'1716.6 1011.1
2014-Sep-07 22:00N 16°00' W 071°30'1716.6 1011.3
2014-Sep-07 21:00N 16°12' W 071°18'2121.4 1011.9
2014-Sep-07 20:00N 16°30' W 071°06'1313.3 1012.3
2014-Sep-07 19:00N 16°42' W 071°00'1716.6 1013.4
2014-Sep-07 18:00N 16°54' W 070°48'1716.6 1013.9
2014-Sep-07 17:00N 17°06' W 070°36'2121.3 1014.7
2014-Sep-07 16:00N 17°24' W 070°24'1716.6 1015.1
2014-Sep-07 15:00N 17°36' W 070°12'1716.6 1015.9
2014-Sep-07 14:00N 17°48' W 070°00'1716.6 1016.6
2014-Sep-07 13:00N 18°00' W 069°48'2121.3 1016.6
2014-Sep-07 12:00N 18°18' W 069°36'   1015.2

Dump ship's entire track history